createdAt,value
2023-03-14T00:03:08.952Z,11.64
2023-03-14T00:09:10.823Z,11.75
2023-03-14T00:15:13.615Z,11.55
2023-03-14T00:21:16.028Z,11.67
2023-03-14T00:27:17.934Z,11.55
2023-03-14T00:33:19.924Z,11.47
2023-03-14T00:39:21.815Z,11.51
2023-03-14T00:45:23.714Z,11.35
2023-03-14T00:51:25.608Z,11.38
2023-03-14T00:57:27.544Z,11.52
2023-03-14T01:03:29.499Z,11.49
2023-03-14T01:09:31.483Z,11.51
2023-03-14T01:15:35.343Z,11.53
2023-03-14T01:21:37.380Z,11.60
2023-03-14T01:27:39.724Z,11.51
2023-03-14T01:33:42.073Z,11.51
2023-03-14T01:39:44.006Z,11.55
2023-03-14T01:46:03.994Z,11.51
2023-03-14T01:52:13.311Z,11.39
2023-03-14T01:58:17.822Z,11.28
2023-03-14T02:04:21.285Z,11.34
2023-03-14T02:10:38.455Z,11.25
2023-03-14T02:16:40.390Z,11.30
2023-03-14T02:22:45.420Z,11.21
2023-03-14T02:28:47.588Z,11.07
2023-03-14T02:34:55.553Z,11.23
2023-03-14T02:40:57.501Z,11.12
2023-03-14T02:46:59.429Z,11.00
2023-03-14T02:53:01.648Z,11.07
2023-03-14T02:59:05.826Z,10.97
2023-03-14T03:05:08.346Z,10.89
2023-03-14T03:11:10.254Z,11.08
2023-03-14T03:17:12.484Z,11.09
2023-03-14T03:23:14.654Z,11.05
2023-03-14T03:29:16.819Z,10.97
2023-03-14T03:35:18.988Z,11.10
2023-03-14T03:41:20.947Z,10.91
2023-03-14T03:47:23.669Z,10.87
2023-03-14T03:53:33.117Z,10.84
2023-03-14T03:59:35.718Z,10.84
2023-03-14T04:05:37.680Z,10.91
2023-03-14T04:11:39.686Z,10.68
2023-03-14T04:17:42.201Z,10.75
2023-03-14T04:23:44.264Z,10.85
2023-03-14T04:29:46.166Z,11.03
2023-03-14T04:35:48.753Z,11.03
2023-03-14T04:41:50.672Z,11.13
2023-03-14T04:47:52.610Z,11.08
2023-03-14T04:53:55.732Z,11.06
2023-03-14T04:59:57.645Z,10.93
2023-03-14T05:06:02.839Z,11.01
2023-03-14T05:12:05.846Z,11.10
2023-03-14T05:18:07.723Z,11.07
2023-03-14T05:24:09.652Z,10.60
2023-03-14T05:30:12.285Z,9.64
2023-03-14T05:36:14.232Z,9.07
2023-03-14T05:42:16.171Z,8.86
2023-03-14T05:48:18.159Z,8.63
2023-03-14T05:54:20.056Z,8.45
2023-03-14T06:00:23.114Z,8.44
2023-03-14T06:06:25.046Z,8.53
2023-03-14T06:12:27.280Z,8.66
2023-03-14T06:18:29.234Z,8.84
2023-03-14T06:24:31.108Z,9.18
2023-03-14T06:30:33.037Z,9.50
2023-03-14T06:36:34.983Z,9.68
2023-03-14T06:42:36.854Z,9.86
2023-03-14T06:48:38.786Z,9.97
2023-03-14T06:54:40.714Z,10.10
2023-03-14T07:00:42.673Z,10.27
2023-03-14T07:06:48.590Z,10.47
2023-03-14T07:12:50.632Z,10.70
2023-03-14T07:18:53.072Z,10.73
2023-03-14T07:24:54.944Z,10.84
2023-03-14T07:30:57.353Z,11.20
2023-03-14T07:36:59.294Z,11.60
2023-03-14T07:43:01.173Z,11.62
2023-03-14T07:49:03.099Z,11.82
2023-03-14T07:55:05.734Z,11.78
2023-03-14T08:01:08.638Z,11.68
2023-03-14T08:07:10.636Z,12.14
2023-03-14T08:13:13.032Z,12.20
2023-03-14T08:19:14.917Z,12.70
2023-03-14T08:25:17.529Z,13.89
2023-03-14T08:31:19.647Z,15.32
2023-03-14T08:37:26.784Z,14.67
2023-03-14T08:43:29.730Z,14.02
2023-03-14T08:49:31.828Z,13.65
2023-03-14T08:55:33.959Z,12.91
2023-03-14T09:01:35.994Z,12.53
2023-03-14T09:07:38.964Z,12.82
2023-03-14T09:13:41.550Z,13.04
2023-03-14T09:19:43.559Z,13.24
2023-03-14T09:25:45.500Z,13.07
2023-03-14T09:31:47.452Z,12.86
2023-03-14T09:37:49.603Z,12.58
2023-03-14T09:44:01.919Z,12.64
2023-03-14T09:50:04.964Z,12.59
2023-03-14T09:56:23.125Z,12.46
2023-03-14T10:02:34.850Z,12.69
2023-03-14T10:08:36.747Z,12.43
2023-03-14T10:14:54.586Z,12.40
2023-03-14T10:21:07.879Z,12.38
2023-03-14T10:27:23.419Z,11.86
2023-03-14T10:33:30.890Z,12.27
2023-03-14T10:39:44.856Z,12.19
2023-03-14T10:46:07.693Z,12.37
2023-03-14T10:52:45.689Z,12.38
2023-03-14T10:58:57.729Z,12.31
2023-03-14T11:05:15.946Z,12.53
2023-03-14T11:11:26.362Z,12.62
2023-03-14T11:17:51.422Z,12.80
2023-03-14T11:24:38.746Z,13.30
2023-03-14T11:30:54.672Z,13.19
2023-03-14T11:37:25.640Z,13.14
2023-03-14T11:43:38.206Z,13.41
2023-03-14T11:50:01.562Z,13.26
2023-03-14T11:56:04.415Z,12.95
2023-03-14T12:02:28.317Z,12.74
2023-03-14T12:08:58.550Z,12.82
2023-03-14T12:15:03.953Z,12.22
2023-03-14T12:21:09.218Z,11.82
2023-03-14T12:27:34.197Z,11.51
2023-03-14T12:33:36.132Z,9.85
2023-03-14T12:40:12.389Z,8.58
2023-03-14T12:46:21.162Z,7.99
2023-03-14T12:52:53.968Z,7.76
2023-03-14T12:59:10.552Z,7.46
2023-03-14T13:05:26.079Z,7.47
2023-03-14T13:11:28.291Z,7.20
2023-03-14T13:17:37.302Z,6.85
2023-03-14T13:23:40.288Z,6.52
2023-03-14T13:29:43.054Z,5.63
2023-03-14T13:35:49.345Z,5.18
2023-03-14T13:41:52.699Z,5.10
2023-03-14T13:47:54.654Z,5.16
2023-03-14T13:53:57.484Z,5.18
2023-03-14T14:00:01.665Z,5.05
2023-03-14T14:06:04.645Z,4.80
2023-03-14T14:12:16.925Z,4.75
2023-03-14T14:18:25.932Z,4.70
2023-03-14T14:24:32.557Z,4.71
2023-03-14T14:30:34.706Z,4.91
2023-03-14T14:36:42.129Z,5.15
2023-03-14T14:42:44.221Z,5.41
2023-03-14T14:48:50.433Z,5.28
2023-03-14T14:54:58.089Z,5.50
2023-03-14T15:01:17.460Z,5.56
2023-03-14T15:07:19.381Z,5.66
2023-03-14T15:13:21.306Z,5.64
2023-03-14T15:19:26.829Z,5.42
2023-03-14T15:25:51.393Z,4.98
2023-03-14T15:31:50.705Z,4.85
2023-03-14T15:37:52.645Z,4.68
2023-03-14T15:43:55.447Z,4.68
2023-03-14T15:49:57.328Z,4.76
2023-03-14T15:55:59.547Z,6.81
2023-03-14T16:02:01.524Z,7.16
2023-03-14T16:08:04.176Z,6.47
2023-03-14T16:14:06.534Z,7.18
2023-03-14T16:20:09.528Z,7.29
2023-03-14T16:26:15.941Z,6.83
2023-03-14T16:32:19.216Z,6.20
2023-03-14T16:38:21.260Z,5.62
2023-03-14T16:44:23.206Z,5.59
2023-03-14T16:50:25.093Z,6.41
2023-03-14T16:56:27.054Z,6.08
2023-03-14T17:02:28.961Z,5.77
2023-03-14T17:08:31.467Z,5.65
2023-03-14T17:14:33.390Z,5.29
2023-03-14T17:20:35.362Z,5.20
2023-03-14T17:26:37.246Z,5.22
2023-03-14T17:32:39.256Z,5.18
2023-03-14T17:38:41.623Z,4.99
2023-03-14T17:44:43.870Z,5.03
2023-03-14T17:50:46.694Z,5.01
2023-03-14T17:56:49.031Z,4.87
2023-03-14T18:02:51.596Z,5.02
2023-03-14T18:08:55.051Z,5.11
2023-03-14T18:14:57.057Z,5.00
2023-03-14T18:20:59.354Z,4.98
2023-03-14T18:27:01.332Z,4.91
2023-03-14T18:33:03.330Z,4.81
2023-03-14T18:39:07.283Z,4.87
2023-03-14T18:45:10.199Z,4.97
2023-03-14T18:51:15.324Z,4.81
2023-03-14T18:57:17.253Z,4.69
2023-03-14T19:03:19.177Z,4.45
2023-03-14T19:09:21.342Z,4.37
2023-03-14T19:15:23.252Z,4.24
2023-03-14T19:21:34.954Z,4.10
2023-03-14T19:27:38.891Z,4.15
2023-03-14T19:33:40.828Z,3.97
2023-03-14T19:39:45.748Z,3.70
2023-03-14T19:45:47.803Z,3.80
2023-03-14T19:51:49.944Z,3.68
2023-03-14T19:57:52.801Z,3.55
2023-03-14T20:03:54.756Z,3.70
2023-03-14T20:09:57.903Z,3.84
2023-03-14T20:16:00.008Z,3.69
2023-03-14T20:22:03.925Z,3.67
2023-03-14T20:28:06.001Z,3.48
2023-03-14T20:34:08.380Z,3.40
2023-03-14T20:40:11.477Z,3.26
2023-03-14T20:46:16.966Z,3.02
2023-03-14T20:52:19.339Z,3.13
2023-03-14T20:58:21.214Z,3.09
2023-03-14T21:04:25.366Z,2.96
2023-03-14T21:10:27.350Z,2.90
2023-03-14T21:16:29.297Z,2.87
2023-03-14T21:22:31.791Z,3.18
2023-03-14T21:28:33.701Z,3.19
2023-03-14T21:34:35.625Z,3.17
2023-03-14T21:40:38.187Z,3.09
2023-03-14T21:46:40.150Z,3.16
2023-03-14T21:52:46.205Z,3.22
2023-03-14T21:58:48.227Z,3.12
2023-03-14T22:04:50.238Z,3.28
2023-03-14T22:10:54.410Z,3.26
2023-03-14T22:16:59.751Z,3.12
2023-03-14T22:23:02.029Z,3.13
2023-03-14T22:29:04.160Z,3.07
2023-03-14T22:35:06.398Z,3.16
2023-03-14T22:41:08.723Z,2.98
2023-03-14T22:47:10.661Z,2.85
2023-03-14T22:53:12.586Z,2.84
2023-03-14T22:59:15.250Z,2.73
2023-03-14T23:05:17.297Z,2.57
2023-03-14T23:11:19.194Z,2.74
2023-03-14T23:17:21.199Z,2.96
2023-03-14T23:23:25.703Z,3.10
2023-03-14T23:29:27.567Z,3.10
2023-03-14T23:35:29.460Z,3.06
2023-03-14T23:41:31.416Z,3.04
2023-03-14T23:47:33.291Z,3.10
2023-03-14T23:53:35.257Z,3.05
2023-03-14T23:59:38.965Z,2.88
